Webster, North Dakota
Current Conditions -  °F | °C
As of 3:15 AM on Friday 19 Dec 2014 (Local Time) from KDVL Reporting Station
Overcast Overcast  
Wind Chill: 15°   Ceiling: 1100
Heat Index: 25°   Visibility: 5mi
Dew Point: 18°   Wind: 10mph
Humidity: 74%   Direction: 160°SSE
Pressure: 29.99"   Gusts: NA
Location:  48.28°N, 98.88°W
Report Text: KDVL 190915Z AUTO 16009KT 5SM FEW005 OVC011 M04/M08 A2999 RMK AO1
Loading
Personal Weather Stations






























Interactive Weather Map New forecast layout! Learn more

10-Day Weather Forecast

Advertisements
Track Severe Weather on mobile